KSMF/SMF METAR and TAF weather

Enter ICAO airport designator
Station Type Date Time Source
KSMF METAR 2019/12/08 16:53 UTC NOAA

KSMF 081653Z 17008KT 10SM FEW030 SCT070 13/12 A3000 RMK AO2 SLP158 T01280117 $


Station Type Date Time Source
KSMF Decoded METAR 2019/12/08 16:53 UTC NOAA

SACRAMENTO INTERNATIONAL AIRPORT, CA, United States (KSMF) 38-42N 121-36W 6M
Dec 08, 2019 - 11:53 AM EST / 2019.12.08 1653 UTC
Wind: from the S (170 degrees) at 9 MPH (8 KT):0
Visibility: 10 mile(s):0
Sky conditions: partly cloudy
Temperature: 55.0 F (12.8 C)
Dew Point: 53.1 F (11.7 C)
Relative Humidity: 93%
Pressure (altimeter): 30 in. Hg (1015 hPa)
ob: KSMF 081653Z 17008KT 10SM FEW030 SCT070 13/12 A3000 RMK AO2 SLP158 T01280117
cycle: 17

Station Type Date Time Source
KSMF TAF 2019/12/08 12:33 UTC NOAA

TAF KSMF 081130Z 0812/0912 16009KT P6SM VCSH SCT015 BKN040
TEMPO 0812/0816 4SM -SHRA BR BKN015
FM082000 VRB04KT P6SM BKN050
FM090200 30006KT P6SM FEW060

Example: see airport list